Thunder radar more information blitzortung!


Radar de pluja more information rain snow radar


Visita la nostra xarxa de llocs de meteo:

Template documentation
and downloads

And another site



No particular awareness of the weather is required.    There are no Weather-warnings

Pagina Historial Weather Underground text

Diari Resum Marc 30, 2016 Unitats:  Mètric    Imperial   Tant
« Previous Dia
SegĂźent Dia »
Diari Setmana Mensual Anual Personalitzada
  Maxima: Minima: Media:
Temperatura: 24.4 °C 8.7 °C 17.6 °C
Punt de rosada: 10.5 °C 2.2 °C 5.7 °C
Humitat: 72 % 28 % 48 %
Wind Speed: 18.5 km/h 0.0 km/h 5.9 km/h
RĂ fegues de vent: 18.5 km/h - -
Vent:- - South
Pression baro: 1017.8 hPa 1012.8 hPa -
Precipitacions: 0.0 mm    
Historical Graphs
 
 
Dades de taula per Marc 30, 2016
Temps Temperatura Punt de rosada Pression baro Vent Wind Speed RĂ fegues de vent Humitat Rainfall Rate (Hourly)
00:03 13.2 °C 4.1 °C 1017.8 hPa SW 2.6 km/h 2.6 km/h 54 % 0.0 mm
00:05 10.5 °C 3.9 °C 1016.8 hPa Calm   1.6 km/h 64 % 0.0 mm
00:15 10.5 °C 3.9 °C 1016.8 hPa West 1.6 km/h 3.2 km/h 64 % 0.0 mm
00:25 10.4 °C 4.6 °C 1016.8 hPa North 1.6 km/h 3.2 km/h 67 % 0.0 mm
00:35 9.8 °C 3.9 °C 1016.8 hPa Calm   3.2 km/h 67 % 0.0 mm
00:45 9.6 °C 3.8 °C 1016.8 hPa Calm   1.6 km/h 67 % 0.0 mm
00:55 9.3 °C 3.5 °C 1016.8 hPa Calm   1.6 km/h 67 % 0.0 mm
01:05 9.2 °C 3.6 °C 1016.8 hPa Calm     68 % 0.0 mm
01:15 9.2 °C 3.6 °C 1015.8 hPa Calm     68 % 0.0 mm
01:25 9.2 °C 3.6 °C 1015.8 hPa Calm     68 % 0.0 mm
01:45 9.2 °C 3.6 °C 1015.8 hPa Calm     68 % 0.0 mm
01:55 9.2 °C 4.0 °C 1015.8 hPa Calm     70 % 0.0 mm
02:05 9.2 °C 4.0 °C 1015.8 hPa Calm     70 % 0.0 mm
02:15 9.2 °C 4.0 °C 1015.8 hPa WSW 1.6 km/h 3.2 km/h 70 % 0.0 mm
02:25 9.2 °C 4.0 °C 1016.8 hPa WSW 1.6 km/h 3.2 km/h 70 % 0.0 mm
02:35 9.2 °C 4.0 °C 1016.8 hPa Calm     70 % 0.0 mm
02:45 8.7 °C 3.7 °C 1016.8 hPa Calm     71 % 0.0 mm
02:55 8.7 °C 3.7 °C 1016.8 hPa Calm     71 % 0.0 mm
03:05 9.2 °C 4.4 °C 1016.8 hPa NW 1.6 km/h 3.2 km/h 72 % 0.0 mm
03:15 9.1 °C 3.7 °C 1015.8 hPa NNE 3.2 km/h 3.2 km/h 69 % 0.0 mm
03:25 9.0 °C 3.8 °C 1016.8 hPa West 1.6 km/h 3.2 km/h 70 % 0.0 mm
03:35 9.2 °C 4.2 °C 1016.8 hPa Calm   3.2 km/h 71 % 0.0 mm
03:45 9.8 °C 4.8 °C 1016.8 hPa Calm   3.2 km/h 71 % 0.0 mm
03:55 9.7 °C 4.5 °C 1016.8 hPa SW 3.2 km/h 4.8 km/h 70 % 0.0 mm
04:05 10.0 °C 5.0 °C 1016.8 hPa SW 3.2 km/h 4.8 km/h 71 % 0.0 mm
04:15 10.4 °C 5.4 °C 1016.8 hPa SW 3.2 km/h 4.8 km/h 71 % 0.0 mm
04:25 10.7 °C 5.7 °C 1017.8 hPa SW 3.2 km/h 4.8 km/h 71 % 0.0 mm
04:35 11.4 °C 6.1 °C 1017.8 hPa SW 1.6 km/h 3.2 km/h 70 % 0.0 mm
04:45 11.7 °C 6.4 °C 1017.8 hPa Calm   4.8 km/h 70 % 0.0 mm
04:55 12.4 °C 6.9 °C 1017.8 hPa SW 3.2 km/h 4.8 km/h 69 % 0.0 mm
05:05 13.4 °C 7.6 °C 1017.8 hPa SSW 1.6 km/h 3.2 km/h 68 % 0.0 mm
05:15 14.2 °C 7.9 °C 1017.8 hPa ESE 1.6 km/h 6.4 km/h 66 % 0.0 mm
05:25 14.6 °C 8.1 °C 1017.8 hPa ENE 1.6 km/h 4.8 km/h 65 % 0.0 mm
05:35 15.0 °C 8.2 °C 1017.8 hPa NE 3.2 km/h 4.8 km/h 64 % 0.0 mm
10:38 15.2 °C 8.4 °C 1017.8 hPa NNE 1.9 km/h 2.3 km/h 64 % 0.0 mm
10:43 15.5 °C 8.5 °C 1017.8 hPa ENE 3.7 km/h 3.7 km/h 63 % 0.0 mm
10:53 15.9 °C 8.8 °C 1017.8 hPa SW 3.7 km/h 3.7 km/h 63 % 0.0 mm
10:58 15.9 °C 8.8 °C 1017.8 hPa SW 3.7 km/h 3.7 km/h 63 % 0.0 mm
11:03 16.6 °C 9.3 °C 1017.8 hPa East 2.6 km/h 2.6 km/h 62 % 0.0 mm
11:13 17.1 °C 9.3 °C 1017.8 hPa NE 3.9 km/h 3.9 km/h 60 % 0.0 mm
11:18 17.1 °C 9.3 °C 1017.8 hPa SW 3.7 km/h 3.7 km/h 60 % 0.0 mm
11:24 18.0 °C 9.9 °C 1017.8 hPa East 3.9 km/h 3.9 km/h 59 % 0.0 mm
11:29 18.1 °C 9.9 °C 1017.8 hPa WSW 7.9 km/h 7.9 km/h 59 % 0.0 mm
11:34 18.4 °C 9.7 °C 1017.8 hPa SSE 1.9 km/h 1.9 km/h 57 % 0.0 mm
11:39 18.6 °C 9.9 °C 1017.8 hPa SE 3.7 km/h 3.7 km/h 57 % 0.0 mm
11:44 18.9 °C 10.2 °C 1017.8 hPa SSW 7.4 km/h 7.4 km/h 57 % 0.0 mm
11:49 19.1 °C 9.6 °C 1017.8 hPa SSW 9.3 km/h 9.3 km/h 54 % 0.0 mm
11:54 19.0 °C 9.2 °C 1017.8 hPa SE 3.7 km/h 3.7 km/h 53 % 0.0 mm
11:59 19.4 °C 9.6 °C 1017.8 hPa SSW 3.7 km/h 3.7 km/h 53 % 0.0 mm
12:09 20.0 °C 9.6 °C 1016.8 hPa SSW 9.3 km/h 9.3 km/h 51 % 0.0 mm
12:14 20.0 °C 9.3 °C 1016.8 hPa SW 3.7 km/h 3.7 km/h 50 % 0.0 mm
12:19 20.5 °C 9.7 °C 1016.8 hPa SW 7.4 km/h 7.4 km/h 50 % 0.0 mm
12:24 20.7 °C 10.2 °C 1016.8 hPa ESE 5.6 km/h 5.6 km/h 51 % 0.0 mm
12:29 20.5 °C 9.7 °C 1016.8 hPa SSW 9.3 km/h 9.3 km/h 50 % 0.0 mm
12:34 20.9 °C 10.1 °C 1016.8 hPa South 5.6 km/h   50 % 0.0 mm
12:39 21.1 °C 9.9 °C 1016.8 hPa ENE 6.4 km/h 6.4 km/h 49 % 0.0 mm
12:44 21.2 °C 10.1 °C 1016.8 hPa SSW 7.4 km/h 7.4 km/h 49 % 0.0 mm
12:49 21.3 °C 10.2 °C 1016.8 hPa South 3.7 km/h 3.7 km/h 49 % 0.0 mm
12:54 21.1 °C 9.7 °C 1015.8 hPa ENE 9.3 km/h 9.3 km/h 48 % 0.0 mm
12:59 21.0 °C 9.6 °C 1015.8 hPa SE 5.6 km/h 5.6 km/h 48 % 0.0 mm
13:04 21.2 °C 9.7 °C 1015.8 hPa East 9.3 km/h 9.3 km/h 48 % 0.0 mm
13:09 21.6 °C 9.8 °C 1015.8 hPa South 9.3 km/h 9.3 km/h 47 % 0.0 mm
13:14 22.1 °C 10.3 °C 1015.8 hPa ENE 7.4 km/h 7.4 km/h 47 % 0.0 mm
13:19 21.7 °C 9.9 °C 1015.8 hPa East 9.3 km/h 9.3 km/h 47 % 0.0 mm
13:24 21.8 °C 10.0 °C 1015.8 hPa East 7.4 km/h 7.4 km/h 47 % 0.0 mm
13:29 22.0 °C 9.8 °C 1015.8 hPa ESE 9.5 km/h 9.5 km/h 46 % 0.0 mm
13:34 22.2 °C 10.0 °C 1015.8 hPa ENE 7.4 km/h 7.4 km/h 46 % 0.0 mm
13:39 22.7 °C 10.5 °C 1015.8 hPa SW 5.8 km/h 5.8 km/h 46 % 0.0 mm
13:44 22.9 °C 9.7 °C 1015.8 hPa SW 11.1 km/h 11.1 km/h 43 % 0.0 mm
13:49 23.0 °C 9.4 °C 1015.8 hPa ESE 9.3 km/h 9.3 km/h 42 % 0.0 mm
13:54 23.5 °C 9.5 °C 1014.8 hPa ESE 9.5 km/h 9.5 km/h 41 % 0.0 mm
13:59 22.7 °C 9.5 °C 1014.8 hPa SSE 7.4 km/h 7.4 km/h 43 % 0.0 mm
14:04 22.8 °C 9.9 °C 1014.8 hPa SSE 13.0 km/h 13.0 km/h 44 % 0.0 mm
14:09 22.9 °C 10.3 °C 1015.8 hPa SSE 5.6 km/h 5.6 km/h 45 % 0.0 mm
14:14 23.3 °C 10.3 °C 1015.8 hPa SW 13.0 km/h 13.0 km/h 44 % 0.0 mm
14:19 23.0 °C 10.1 °C 1015.8 hPa SSW 9.3 km/h 9.3 km/h 44 % 0.0 mm
14:24 23.4 °C 10.4 °C 1015.8 hPa East 5.6 km/h 5.6 km/h 44 % 0.0 mm
14:29 23.4 °C 10.4 °C 1015.8 hPa South 5.8 km/h 5.8 km/h 44 % 0.0 mm
14:34 24.0 °C 9.9 °C 1015.8 hPa SSW 3.7 km/h 3.7 km/h 41 % 0.0 mm
14:39 23.8 °C 8.6 °C 1015.8 hPa South 9.3 km/h 9.3 km/h 38 % 0.0 mm
14:44 23.5 °C 7.9 °C 1015.8 hPa SW 9.3 km/h 9.3 km/h 37 % 0.0 mm
14:49 23.7 °C 6.0 °C 1015.8 hPa SW 14.8 km/h 14.8 km/h 32 % 0.0 mm
14:54 23.2 °C 4.7 °C 1015.8 hPa SW 16.7 km/h 16.7 km/h 30 % 0.0 mm
14:59 24.1 °C 6.4 °C 1015.8 hPa SW 9.3 km/h 9.3 km/h 32 % 0.0 mm
15:04 24.4 °C 6.2 °C 1015.8 hPa WNW 7.4 km/h 7.4 km/h 31 % 0.0 mm
15:09 24.0 °C 4.8 °C 1015.8 hPa WSW 13.0 km/h 13.0 km/h 29 % 0.0 mm
15:19 24.1 °C 4.9 °C 1015.8 hPa SW 9.3 km/h 9.3 km/h 29 % 0.0 mm
15:24 23.8 °C 4.2 °C 1015.8 hPa SW 14.8 km/h 14.8 km/h 28 % 0.0 mm
15:29 23.9 °C 4.3 °C 1015.8 hPa SW 13.7 km/h 13.7 km/h 28 % 0.0 mm
15:34 23.7 °C 4.1 °C 1015.8 hPa WSW 10.3 km/h 10.3 km/h 28 % 0.0 mm
15:39 23.5 °C 3.9 °C 1015.8 hPa SW 13.0 km/h 13.0 km/h 28 % 0.0 mm
15:44 23.8 °C 4.2 °C 1015.8 hPa WSW 13.0 km/h 13.0 km/h 28 % 0.0 mm
15:49 23.6 °C 4.0 °C 1015.8 hPa WSW 9.3 km/h 9.3 km/h 28 % 0.0 mm
15:54 23.6 °C 4.0 °C 1014.8 hPa SSW 16.7 km/h 16.7 km/h 28 % 0.0 mm
15:59 23.1 °C 3.6 °C 1014.8 hPa SSW 14.8 km/h 14.8 km/h 28 % 0.0 mm
16:04 23.6 °C 4.0 °C 1014.8 hPa SW 13.0 km/h 13.0 km/h 28 % 0.0 mm
16:09 23.6 °C 4.0 °C 1014.8 hPa SSW 9.3 km/h 9.3 km/h 28 % 0.0 mm
16:19 24.0 °C 4.3 °C 1014.8 hPa SW 13.0 km/h 13.0 km/h 28 % 0.0 mm
16:24 24.2 °C 4.6 °C 1014.8 hPa WSW 5.6 km/h 5.6 km/h 28 % 0.0 mm
16:29 24.4 °C 4.7 °C 1014.8 hPa SW 5.6 km/h 5.6 km/h 28 % 0.0 mm
16:34 24.3 °C 4.6 °C 1014.8 hPa SSW 7.6 km/h 7.6 km/h 28 % 0.0 mm
16:39 24.0 °C 4.8 °C 1015.8 hPa WSW 7.4 km/h 7.4 km/h 29 % 0.0 mm
16:44 23.5 °C 4.4 °C 1015.8 hPa South 7.4 km/h 7.4 km/h 29 % 0.0 mm
16:49 23.5 °C 4.4 °C 1015.8 hPa ESE 9.3 km/h 9.3 km/h 29 % 0.0 mm
16:54 22.9 °C 4.4 °C 1014.8 hPa SSE 18.5 km/h 18.5 km/h 30 % 0.0 mm
16:59 23.7 °C 4.1 °C 1014.8 hPa South 7.4 km/h 7.4 km/h 28 % 0.0 mm
17:04 23.5 °C 3.9 °C 1014.8 hPa SSW 5.6 km/h 5.6 km/h 28 % 0.0 mm
17:09 23.7 °C 4.6 °C 1014.8 hPa SE 5.6 km/h 5.6 km/h 29 % 0.0 mm
17:14 23.9 °C 4.8 °C 1014.8 hPa SW 5.6 km/h 5.6 km/h 29 % 0.0 mm
17:19 23.9 °C 4.8 °C 1014.8 hPa West 6.1 km/h 6.1 km/h 29 % 0.0 mm
17:24 23.8 °C 4.7 °C 1014.8 hPa WSW 7.4 km/h 7.4 km/h 29 % 0.0 mm
17:29 22.8 °C 3.8 °C 1014.8 hPa SSW 13.0 km/h 13.0 km/h 29 % 0.0 mm
17:34 22.6 °C 3.7 °C 1014.8 hPa South 9.5 km/h 9.5 km/h 29 % 0.0 mm
17:44 22.0 °C 3.1 °C 1014.8 hPa WNW 9.3 km/h 9.3 km/h 29 % 0.0 mm
17:49 21.7 °C 2.9 °C 1014.8 hPa WSW 9.3 km/h 9.3 km/h 29 % 0.0 mm
17:54 21.5 °C 2.7 °C 1014.8 hPa West 11.1 km/h 11.1 km/h 29 % 0.0 mm
17:59 21.2 °C 2.9 °C 1014.8 hPa SW 11.1 km/h 11.1 km/h 30 % 0.0 mm
18:04 20.7 °C 2.5 °C 1014.8 hPa SW 9.3 km/h 9.3 km/h 30 % 0.0 mm
18:09 20.7 °C 2.5 °C 1013.8 hPa WSW 18.5 km/h 18.5 km/h 30 % 0.0 mm
18:14 20.8 °C 2.6 °C 1013.8 hPa SW 14.8 km/h 14.8 km/h 30 % 0.0 mm
18:19 20.9 °C 2.7 °C 1013.8 hPa WSW 11.1 km/h 11.1 km/h 30 % 0.0 mm
18:24 20.5 °C 2.8 °C 1013.8 hPa SW 13.0 km/h 13.0 km/h 31 % 0.0 mm
18:29 20.2 °C 2.5 °C 1013.8 hPa SSW 14.5 km/h 14.5 km/h 31 % 0.0 mm
18:34 19.9 °C 2.7 °C 1013.8 hPa SSW 16.7 km/h 16.7 km/h 32 % 0.0 mm
18:39 19.5 °C 2.8 °C 1013.8 hPa SW 14.8 km/h 14.8 km/h 33 % 0.0 mm
18:44 19.1 °C 2.4 °C 1013.8 hPa WSW 16.9 km/h 16.9 km/h 33 % 0.0 mm
18:54 18.8 °C 2.2 °C 1013.8 hPa SW 11.1 km/h 11.1 km/h 33 % 0.0 mm
18:59 18.6 °C 2.4 °C 1013.8 hPa SW 14.8 km/h 14.8 km/h 34 % 0.0 mm
19:04 18.4 °C 2.7 °C 1013.8 hPa WSW 9.3 km/h 9.3 km/h 35 % 0.0 mm
19:09 18.1 °C 2.8 °C 1013.8 hPa SW 9.3 km/h 9.3 km/h 36 % 0.0 mm
19:14 18.0 °C 3.1 °C 1013.8 hPa SW 9.3 km/h 9.3 km/h 37 % 0.0 mm
19:19 17.8 °C 3.7 °C 1013.8 hPa SSW 11.1 km/h 11.1 km/h 39 % 0.0 mm
19:24 17.6 °C 3.4 °C 1013.8 hPa SSE 7.4 km/h 7.4 km/h 39 % 0.0 mm
19:29 17.5 °C 3.4 °C 1013.8 hPa SW 9.5 km/h 9.5 km/h 39 % 0.0 mm
19:34 17.3 °C 3.6 °C 1013.8 hPa WSW 9.3 km/h 9.3 km/h 40 % 0.0 mm
19:39 17.1 °C 3.4 °C 1013.8 hPa SW 9.3 km/h 9.3 km/h 40 % 0.0 mm
19:44 17.0 °C 3.7 °C 1013.8 hPa SSW 7.4 km/h 7.4 km/h 41 % 0.0 mm
19:49 16.9 °C 3.6 °C 1013.8 hPa WSW 6.9 km/h 6.9 km/h 41 % 0.0 mm
19:54 16.8 °C 3.4 °C 1013.8 hPa SW 7.4 km/h 7.4 km/h 41 % 0.0 mm
19:59 16.7 °C 3.7 °C 1013.8 hPa WSW 7.4 km/h 7.4 km/h 42 % 0.0 mm
20:04 16.5 °C 3.6 °C 1013.8 hPa SW 5.6 km/h 5.6 km/h 42 % 0.0 mm
20:09 16.5 °C 3.6 °C 1013.8 hPa WSW 5.8 km/h 5.8 km/h 42 % 0.0 mm
20:19 16.3 °C 3.7 °C 1013.8 hPa SSW 5.6 km/h 5.6 km/h 43 % 0.0 mm
20:24 16.2 °C 3.9 °C 1013.8 hPa SSW 3.7 km/h 3.7 km/h 44 % 0.0 mm
20:29 16.1 °C 3.8 °C 1013.8 hPa SW 3.7 km/h 3.7 km/h 44 % 0.0 mm
20:34 16.0 °C 3.7 °C 1013.8 hPa SW 2.3 km/h 2.3 km/h 44 % 0.0 mm
20:39 15.9 °C 3.7 °C 1013.8 hPa WSW 3.7 km/h 3.7 km/h 44 % 0.0 mm
20:44 15.8 °C 3.9 °C 1013.8 hPa West 1.9 km/h   45 % 0.0 mm
20:49 15.7 °C 3.8 °C 1013.8 hPa WSW 3.7 km/h 3.7 km/h 45 % 0.0 mm
20:55 15.6 °C 3.7 °C 1013.8 hPa WSW 3.2 km/h 3.2 km/h 45 % 0.0 mm
21:00 15.6 °C 4.0 °C 1013.8 hPa WSW 3.7 km/h 3.7 km/h 46 % 0.0 mm
21:05 15.4 °C 3.8 °C 1013.8 hPa SW 5.6 km/h 5.6 km/h 46 % 0.0 mm
21:10 15.3 °C 4.1 °C 1013.8 hPa Calm     47 % 0.0 mm
21:15 15.2 °C 3.9 °C 1013.8 hPa SW 1.9 km/h   47 % 0.0 mm
21:20 15.0 °C 4.1 °C 1013.8 hPa Calm     48 % 0.0 mm
21:25 15.0 °C 4.1 °C 1013.8 hPa Calm   3.2 km/h 48 % 0.0 mm
21:30 14.8 °C 4.2 °C 1013.8 hPa SSE 1.9 km/h   49 % 0.0 mm
21:35 14.7 °C 4.1 °C 1013.8 hPa Calm     49 % 0.0 mm
21:40 14.6 °C 4.0 °C 1013.8 hPa Calm     49 % 0.0 mm
21:50 14.5 °C 4.2 °C 1013.8 hPa Calm     50 % 0.0 mm
21:55 14.4 °C 4.1 °C 1013.8 hPa SE 1.6 km/h 1.6 km/h 50 % 0.0 mm
22:00 14.4 °C 4.4 °C 1013.8 hPa ENE 1.9 km/h 1.9 km/h 51 % 0.0 mm
22:05 14.4 °C 4.4 °C 1013.8 hPa Calm   3.2 km/h 51 % 0.0 mm
22:10 14.3 °C 4.6 °C 1013.8 hPa ENE 1.9 km/h 1.9 km/h 52 % 0.0 mm
22:15 14.3 °C 4.8 °C 1013.8 hPa Calm     53 % 0.0 mm
22:20 14.2 °C 4.7 °C 1013.8 hPa ENE 2.6 km/h 2.6 km/h 53 % 0.0 mm
22:25 14.1 °C 4.7 °C 1013.8 hPa Calm   3.2 km/h 53 % 0.0 mm
22:30 14.1 °C 4.9 °C 1013.8 hPa ENE 1.6 km/h 3.2 km/h 54 % 0.0 mm
22:35 14.0 °C 4.8 °C 1013.8 hPa NE 1.6 km/h 3.2 km/h 54 % 0.0 mm
22:40 13.9 °C 5.1 °C 1013.8 hPa NE 3.2 km/h 4.8 km/h 55 % 0.0 mm
22:45 13.8 °C 5.2 °C 1013.8 hPa NE 1.6 km/h 4.8 km/h 56 % 0.0 mm
22:55 13.6 °C 5.2 °C 1013.8 hPa NE 1.6 km/h 4.8 km/h 57 % 0.0 mm
23:00 13.5 °C 5.4 °C 1013.8 hPa NE 3.2 km/h 4.8 km/h 58 % 0.0 mm
23:05 13.4 °C 5.6 °C 1013.8 hPa NE 3.2 km/h 4.8 km/h 59 % 0.0 mm
23:10 13.3 °C 5.5 °C 1013.8 hPa NE 3.2 km/h 3.2 km/h 59 % 0.0 mm
23:15 13.3 °C 5.7 °C 1013.8 hPa NE 1.6 km/h 3.2 km/h 60 % 0.0 mm
23:20 13.2 °C 5.6 °C 1013.8 hPa NE 3.2 km/h 3.2 km/h 60 % 0.0 mm
23:25 13.2 °C 5.6 °C 1013.8 hPa NE 1.6 km/h 3.2 km/h 60 % 0.0 mm
23:30 13.1 °C 5.7 °C 1013.8 hPa ENE 1.6 km/h 3.2 km/h 61 % 0.0 mm
23:35 13.0 °C 5.7 °C 1013.8 hPa Calm   3.2 km/h 61 % 0.0 mm
23:40 13.0 °C 5.9 °C 1012.8 hPa ENE 1.9 km/h   62 % 0.0 mm
23:45 12.9 °C 6.0 °C 1012.8 hPa Calm   1.6 km/h 63 % 0.0 mm
23:50 12.9 °C 6.0 °C 1012.8 hPa NE 1.6 km/h 3.2 km/h 63 % 0.0 mm
23:55 12.8 °C 5.9 °C 1013.8 hPa ENE 3.7 km/h 3.7 km/h 63 % 0.0 mm
Meteo Sesrovires
Elogis d' Weather Underground - 3.5 mb

Guio original per  Jim McMurry - jmcmurry@mwt.net Adaptat per a la plantilla per  Wim van der Kuil - Leuven-Template.eu

Trobareu la nostra informacio del temps tambe a:

Weather Underground

AWEKAS